sensor_id;sensor_type;location;lat;lon;timestamp;pressure;altitude;pressure_sealevel;temperature;humidity
6528;BME280;64597;42.664;23.256;2023-02-28T00:00:12;95002.56;;;8.47;73.54
6528;BME280;64597;42.664;23.256;2023-02-28T00:02:40;95005.59;;;8.50;73.67
6528;BME280;64597;42.664;23.256;2023-02-28T00:05:07;95009.59;;;8.53;73.77
6528;BME280;64597;42.664;23.256;2023-02-28T00:07:33;95020.28;;;8.58;73.49
6528;BME280;64597;42.664;23.256;2023-02-28T00:09:59;95013.00;;;8.60;73.63
6528;BME280;64597;42.664;23.256;2023-02-28T00:12:25;95019.66;;;8.62;73.41
6528;BME280;64597;42.664;23.256;2023-02-28T00:14:52;95018.22;;;8.66;73.48
6528;BME280;64597;42.664;23.256;2023-02-28T00:17:17;95009.09;;;8.69;72.83
6528;BME280;64597;42.664;23.256;2023-02-28T00:19:46;95020.59;;;8.74;72.85
6528;BME280;64597;42.664;23.256;2023-02-28T00:22:11;95022.88;;;8.71;72.78
6528;BME280;64597;42.664;23.256;2023-02-28T00:24:36;95003.56;;;8.52;72.80
6528;BME280;64597;42.664;23.256;2023-02-28T00:27:02;95026.88;;;8.73;72.09
6528;BME280;64597;42.664;23.256;2023-02-28T00:29:27;95031.34;;;8.73;71.98
6528;BME280;64597;42.664;23.256;2023-02-28T00:31:53;94936.63;;;8.17;72.59
6528;BME280;64597;42.664;23.256;2023-02-28T00:34:18;95034.34;;;8.76;72.74
6528;BME280;64597;42.664;23.256;2023-02-28T00:36:43;95030.91;;;8.76;72.41
6528;BME280;64597;42.664;23.256;2023-02-28T00:39:11;95029.25;;;8.81;72.94
6528;BME280;64597;42.664;23.256;2023-02-28T00:41:36;95016.53;;;8.78;72.66
6528;BME280;64597;42.664;23.256;2023-02-28T00:44:02;95014.16;;;8.70;72.30
6528;BME280;64597;42.664;23.256;2023-02-28T00:46:27;95023.03;;;8.76;72.36
6528;BME280;64597;42.664;23.256;2023-02-28T00:48:53;95018.38;;;8.71;72.82
6528;BME280;64597;42.664;23.256;2023-02-28T00:51:18;95020.84;;;8.66;72.85
6528;BME280;64597;42.664;23.256;2023-02-28T00:53:44;95020.28;;;8.64;72.99
6528;BME280;64597;42.664;23.256;2023-02-28T00:56:10;95028.94;;;8.65;72.72
6528;BME280;64597;42.664;23.256;2023-02-28T00:58:35;95028.16;;;8.64;72.91
6528;BME280;64597;42.664;23.256;2023-02-28T01:01:00;95023.53;;;8.60;72.89
6528;BME280;64597;42.664;23.256;2023-02-28T01:03:26;95026.38;;;8.58;72.65
6528;BME280;64597;42.664;23.256;2023-02-28T01:05:52;95021.91;;;8.59;73.06
6528;BME280;64597;42.664;23.256;2023-02-28T01:08:18;95012.44;;;8.51;73.03
6528;BME280;64597;42.664;23.256;2023-02-28T01:10:44;95010.63;;;8.52;72.74
6528;BME280;64597;42.664;23.256;2023-02-28T01:13:11;95003.63;;;8.39;72.25
6528;BME280;64597;42.664;23.256;2023-02-28T01:15:36;95021.38;;;8.44;72.96
6528;BME280;64597;42.664;23.256;2023-02-28T01:18:03;95007.66;;;8.42;73.08
6528;BME280;64597;42.664;23.256;2023-02-28T01:20:28;95017.53;;;8.46;72.04
6528;BME280;64597;42.664;23.256;2023-02-28T01:22:53;95020.19;;;8.40;72.92
6528;BME280;64597;42.664;23.256;2023-02-28T01:25:19;95025.44;;;8.40;72.40
6528;BME280;64597;42.664;23.256;2023-02-28T01:27:44;95023.41;;;8.42;73.03
6528;BME280;64597;42.664;23.256;2023-02-28T01:30:10;95013.72;;;8.42;73.45
6528;BME280;64597;42.664;23.256;2023-02-28T01:32:36;95008.28;;;8.30;73.04
6528;BME280;64597;42.664;23.256;2023-02-28T01:35:02;94998.84;;;8.10;73.19
6528;BME280;64597;42.664;23.256;2023-02-28T01:37:27;95012.56;;;8.25;73.14
6528;BME280;64597;42.664;23.256;2023-02-28T01:39:53;95016.97;;;8.24;73.45
6528;BME280;64597;42.664;23.256;2023-02-28T01:42:18;95022.22;;;8.24;73.67
6528;BME280;64597;42.664;23.256;2023-02-28T01:44:58;95031.56;;;8.27;73.87
6528;BME280;64597;42.664;23.256;2023-02-28T01:47:27;95025.91;;;8.17;73.36
6528;BME280;64597;42.664;23.256;2023-02-28T01:49:54;95025.13;;;8.10;73.65
6528;BME280;64597;42.664;23.256;2023-02-28T01:52:21;95032.00;;;8.11;73.44
6528;BME280;64597;42.664;23.256;2023-02-28T01:54:51;95032.22;;;8.09;73.43
6528;BME280;64597;42.664;23.256;2023-02-28T01:57:20;95034.41;;;8.06;73.17
6528;BME280;64597;42.664;23.256;2023-02-28T01:59:52;95027.59;;;7.98;73.04
6528;BME280;64597;42.664;23.256;2023-02-28T02:02:21;95047.97;;;8.03;72.89
6528;BME280;64597;42.664;23.256;2023-02-28T02:05:09;95027.75;;;8.03;73.43
6528;BME280;64597;42.664;23.256;2023-02-28T02:07:35;95029.59;;;8.03;72.96
6528;BME280;64597;42.664;23.256;2023-02-28T02:10:18;95027.97;;;7.95;73.43
6528;BME280;64597;42.664;23.256;2023-02-28T02:18:26;95028.03;;;7.89;73.47
6528;BME280;64597;42.664;23.256;2023-02-28T02:37:50;95018.69;;;7.99;73.43
6528;BME280;64597;42.664;23.256;2023-02-28T02:43:11;95027.81;;;7.90;72.91
6528;BME280;64597;42.664;23.256;2023-02-28T02:45:51;95024.81;;;7.87;73.94
6528;BME280;64597;42.664;23.256;2023-02-28T02:48:20;95028.81;;;7.96;73.86
6528;BME280;64597;42.664;23.256;2023-02-28T02:50:53;95031.19;;;8.04;73.73
6528;BME280;64597;42.664;23.256;2023-02-28T02:53:24;95023.16;;;7.99;73.68
6528;BME280;64597;42.664;23.256;2023-02-28T02:55:53;95027.81;;;7.97;73.42
6528;BME280;64597;42.664;23.256;2023-02-28T02:58:23;95035.69;;;7.84;73.83
6528;BME280;64597;42.664;23.256;2023-02-28T03:01:03;95000.41;;;7.67;73.58
6528;BME280;64597;42.664;23.256;2023-02-28T03:03:30;95035.72;;;7.71;73.80
6528;BME280;64597;42.664;23.256;2023-02-28T03:06:00;95031.28;;;7.65;74.07
6528;BME280;64597;42.664;23.256;2023-02-28T03:08:26;95037.78;;;7.62;74.28
6528;BME280;64597;42.664;23.256;2023-02-28T03:10:56;95041.00;;;7.64;74.29
6528;BME280;64597;42.664;23.256;2023-02-28T03:17:06;95041.38;;;7.68;74.50
6528;BME280;64597;42.664;23.256;2023-02-28T03:27:55;95073.66;;;7.88;75.06
6528;BME280;64597;42.664;23.256;2023-02-28T03:30:35;95065.59;;;7.83;74.82
6528;BME280;64597;42.664;23.256;2023-02-28T03:33:12;95064.78;;;7.89;74.83
6528;BME280;64597;42.664;23.256;2023-02-28T03:35:51;95067.41;;;7.89;74.39
6528;BME280;64597;42.664;23.256;2023-02-28T03:41:14;95069.22;;;7.82;74.94
6528;BME280;64597;42.664;23.256;2023-02-28T03:43:45;95080.09;;;7.85;74.65
6528;BME280;64597;42.664;23.256;2023-02-28T03:46:15;95072.66;;;7.89;74.93
6528;BME280;64597;42.664;23.256;2023-02-28T03:48:46;95074.84;;;7.92;74.44
6528;BME280;64597;42.664;23.256;2023-02-28T03:51:19;95081.91;;;7.91;74.49
6528;BME280;64597;42.664;23.256;2023-02-28T03:53:50;95092.84;;;7.88;74.56
6528;BME280;64597;42.664;23.256;2023-02-28T03:56:24;95085.38;;;7.79;74.39
6528;BME280;64597;42.664;23.256;2023-02-28T03:59:00;95092.25;;;7.86;74.86
6528;BME280;64597;42.664;23.256;2023-02-28T04:01:35;95077.53;;;7.79;75.16
6528;BME280;64597;42.664;23.256;2023-02-28T04:04:03;95087.19;;;7.85;74.95
6528;BME280;64597;42.664;23.256;2023-02-28T04:06:31;95088.59;;;7.87;74.21
6528;BME280;64597;42.664;23.256;2023-02-28T04:08:58;95092.03;;;7.88;74.62
6528;BME280;64597;42.664;23.256;2023-02-28T04:14:03;95061.97;;;7.71;74.31
6528;BME280;64597;42.664;23.256;2023-02-28T04:16:30;95083.16;;;7.76;74.54
6528;BME280;64597;42.664;23.256;2023-02-28T04:18:56;95089.41;;;7.81;74.81
6528;BME280;64597;42.664;23.256;2023-02-28T04:21:32;95086.59;;;7.83;74.75
6528;BME280;64597;42.664;23.256;2023-02-28T04:23:58;95084.97;;;7.82;74.73
6528;BME280;64597;42.664;23.256;2023-02-28T04:26:33;95082.94;;;7.84;74.64
6528;BME280;64597;42.664;23.256;2023-02-28T04:29:02;95081.13;;;7.84;73.99
6528;BME280;64597;42.664;23.256;2023-02-28T04:31:27;95081.34;;;7.76;74.79
6528;BME280;64597;42.664;23.256;2023-02-28T04:33:53;95076.31;;;7.75;74.84
6528;BME280;64597;42.664;23.256;2023-02-28T04:36:18;95082.16;;;7.70;74.64
6528;BME280;64597;42.664;23.256;2023-02-28T04:38:44;95087.19;;;7.72;75.29
6528;BME280;64597;42.664;23.256;2023-02-28T04:41:10;95091.03;;;7.76;75.35
6528;BME280;64597;42.664;23.256;2023-02-28T04:43:36;95090.81;;;7.77;74.84
6528;BME280;64597;42.664;23.256;2023-02-28T04:46:03;95104.38;;;7.74;75.01
6528;BME280;64597;42.664;23.256;2023-02-28T04:48:31;95083.16;;;7.63;75.02
6528;BME280;64597;42.664;23.256;2023-02-28T04:51:16;95107.19;;;7.73;74.86
6528;BME280;64597;42.664;23.256;2023-02-28T04:53:43;95110.22;;;7.83;74.17
6528;BME280;64597;42.664;23.256;2023-02-28T04:56:11;95109.00;;;7.79;74.75
6528;BME280;64597;42.664;23.256;2023-02-28T04:58:37;95109.19;;;7.77;74.72
6528;BME280;64597;42.664;23.256;2023-02-28T05:01:04;95111.22;;;7.69;74.40
6528;BME280;64597;42.664;23.256;2023-02-28T05:03:30;95109.22;;;7.58;75.02
6528;BME280;64597;42.664;23.256;2023-02-28T05:05:55;95115.88;;;7.60;75.27
6528;BME280;64597;42.664;23.256;2023-02-28T05:08:21;95110.44;;;7.62;75.11
6528;BME280;64597;42.664;23.256;2023-02-28T05:10:46;95110.00;;;7.65;75.23
6528;BME280;64597;42.664;23.256;2023-02-28T05:13:12;95112.84;;;7.57;75.34
6528;BME280;64597;42.664;23.256;2023-02-28T05:15:38;95116.25;;;7.50;75.34
6528;BME280;64597;42.664;23.256;2023-02-28T05:18:03;95114.69;;;7.56;75.55
6528;BME280;64597;42.664;23.256;2023-02-28T05:20:29;95117.09;;;7.58;75.60
6528;BME280;64597;42.664;23.256;2023-02-28T05:22:54;95132.41;;;7.61;75.42
6528;BME280;64597;42.664;23.256;2023-02-28T05:25:21;95125.75;;;7.65;75.32
6528;BME280;64597;42.664;23.256;2023-02-28T05:27:49;95106.38;;;7.53;75.13
6528;BME280;64597;42.664;23.256;2023-02-28T05:30:15;95129.41;;;7.70;75.31
6528;BME280;64597;42.664;23.256;2023-02-28T05:32:41;95124.97;;;7.58;75.48
6528;BME280;64597;42.664;23.256;2023-02-28T05:35:09;95136.66;;;7.62;75.64
6528;BME280;64597;42.664;23.256;2023-02-28T05:37:35;95141.50;;;7.65;75.26
6528;BME280;64597;42.664;23.256;2023-02-28T05:40:01;95136.06;;;7.73;75.42
6528;BME280;64597;42.664;23.256;2023-02-28T05:42:26;95129.59;;;7.62;75.03
6528;BME280;64597;42.664;23.256;2023-02-28T05:44:52;95147.97;;;7.82;74.88
6528;BME280;64597;42.664;23.256;2023-02-28T05:47:17;95124.97;;;7.64;74.32
6528;BME280;64597;42.664;23.256;2023-02-28T05:49:43;95132.41;;;7.67;74.96
6528;BME280;64597;42.664;23.256;2023-02-28T05:52:08;95144.94;;;7.78;75.04
6528;BME280;64597;42.664;23.256;2023-02-28T05:54:34;95135.03;;;7.74;74.86
6528;BME280;64597;42.664;23.256;2023-02-28T05:56:59;95153.63;;;7.79;74.58
6528;BME280;64597;42.664;23.256;2023-02-28T05:59:25;95152.00;;;7.84;74.54
6528;BME280;64597;42.664;23.256;2023-02-28T06:01:50;95151.19;;;7.84;74.36
6528;BME280;64597;42.664;23.256;2023-02-28T06:04:19;95147.97;;;7.82;74.10
6528;BME280;64597;42.664;23.256;2023-02-28T06:06:48;95152.81;;;7.85;73.99
6528;BME280;64597;42.664;23.256;2023-02-28T06:09:14;95142.94;;;7.80;74.09
6528;BME280;64597;42.664;23.256;2023-02-28T06:11:40;95152.41;;;7.88;73.61
6528;BME280;64597;42.664;23.256;2023-02-28T06:14:06;95147.16;;;7.81;74.03
6528;BME280;64597;42.664;23.256;2023-02-28T06:16:33;95155.22;;;7.80;74.09
6528;BME280;64597;42.664;23.256;2023-02-28T06:19:02;95152.22;;;7.83;74.11
6528;BME280;64597;42.664;23.256;2023-02-28T06:21:28;95160.09;;;7.76;74.03
6528;BME280;64597;42.664;23.256;2023-02-28T06:23:54;95139.91;;;7.64;73.49
6528;BME280;64597;42.664;23.256;2023-02-28T06:26:20;95149.16;;;9.27;86.19
6528;BME280;64597;42.664;23.256;2023-02-28T06:28:46;95142.19;;;11.69;75.00
6528;BME280;64597;42.664;23.256;2023-02-28T06:31:14;95139.50;;;13.36;70.84
6528;BME280;64597;42.664;23.256;2023-02-28T06:33:40;95146.13;;;13.10;71.71
6528;BME280;64597;42.664;23.256;2023-02-28T06:36:07;95145.22;;;12.30;67.96
6528;BME280;64597;42.664;23.256;2023-02-28T06:38:33;95153.19;;;11.66;66.00
6528;BME280;64597;42.664;23.256;2023-02-28T06:40:59;95162.66;;;11.26;64.59
6528;BME280;64597;42.664;23.256;2023-02-28T06:43:28;95156.84;;;10.88;63.87
6528;BME280;64597;42.664;23.256;2023-02-28T06:45:54;95160.97;;;10.65;63.54
6528;BME280;64597;42.664;23.256;2023-02-28T06:48:19;95164.91;;;10.38;64.22
6528;BME280;64597;42.664;23.256;2023-02-28T06:50:45;95166.75;;;10.13;64.78
6528;BME280;64597;42.664;23.256;2023-02-28T06:53:10;95164.19;;;10.00;64.56
6528;BME280;64597;42.664;23.256;2023-02-28T06:55:37;95157.28;;;9.81;65.53
6528;BME280;64597;42.664;23.256;2023-02-28T06:58:03;95172.31;;;9.74;65.59
6528;BME280;64597;42.664;23.256;2023-02-28T07:00:38;95169.78;;;9.61;66.03
6528;BME280;64597;42.664;23.256;2023-02-28T07:03:04;95171.69;;;9.47;66.93
6528;BME280;64597;42.664;23.256;2023-02-28T07:05:29;95174.19;;;9.36;67.79
6528;BME280;64597;42.664;23.256;2023-02-28T07:07:54;95170.19;;;9.27;68.66
6528;BME280;64597;42.664;23.256;2023-02-28T07:10:20;95167.22;;;9.17;68.55
6528;BME280;64597;42.664;23.256;2023-02-28T07:12:45;95177.13;;;9.14;69.29
6528;BME280;64597;42.664;23.256;2023-02-28T07:15:11;95176.75;;;9.11;69.47
6528;BME280;64597;42.664;23.256;2023-02-28T07:17:36;95178.00;;;9.02;69.18
6528;BME280;64597;42.664;23.256;2023-02-28T07:20:02;95180.50;;;8.90;69.91
6528;BME280;64597;42.664;23.256;2023-02-28T07:22:29;95158.91;;;8.75;70.93
6528;BME280;64597;42.664;23.256;2023-02-28T07:24:55;95176.28;;;8.83;70.42
6528;BME280;64597;42.664;23.256;2023-02-28T07:27:20;95182.97;;;8.79;70.14
6528;BME280;64597;42.664;23.256;2023-02-28T07:29:51;95184.66;;;8.60;71.82
6528;BME280;64597;42.664;23.256;2023-02-28T07:32:17;95183.03;;;8.59;71.54
6528;BME280;64597;42.664;23.256;2023-02-28T07:34:42;95176.34;;;8.57;71.97
6528;BME280;64597;42.664;23.256;2023-02-28T07:37:07;95179.78;;;8.57;72.13
6528;BME280;64597;42.664;23.256;2023-02-28T07:39:33;95184.28;;;8.50;71.90
6528;BME280;64597;42.664;23.256;2023-02-28T07:41:58;95186.28;;;8.48;72.21
6528;BME280;64597;42.664;23.256;2023-02-28T07:44:25;95187.13;;;8.42;72.18
6528;BME280;64597;42.664;23.256;2023-02-28T07:46:51;95171.38;;;8.29;73.27
6528;BME280;64597;42.664;23.256;2023-02-28T07:49:17;95180.25;;;8.28;73.21
6528;BME280;64597;42.664;23.256;2023-02-28T07:51:43;95183.47;;;8.30;73.39
6528;BME280;64597;42.664;23.256;2023-02-28T07:54:08;95180.25;;;8.35;73.08
6528;BME280;64597;42.664;23.256;2023-02-28T07:56:34;95176.81;;;8.34;73.79
6528;BME280;64597;42.664;23.256;2023-02-28T07:58:59;95172.56;;;8.33;73.62
6528;BME280;64597;42.664;23.256;2023-02-28T08:01:24;95174.56;;;8.24;74.14
6528;BME280;64597;42.664;23.256;2023-02-28T08:03:50;95172.59;;;8.26;73.91
6528;BME280;64597;42.664;23.256;2023-02-28T08:06:26;95173.38;;;8.34;73.31
6528;BME280;64597;42.664;23.256;2023-02-28T08:08:52;95171.56;;;8.34;73.87
6528;BME280;64597;42.664;23.256;2023-02-28T08:11:18;95172.38;;;8.28;73.71
6528;BME280;64597;42.664;23.256;2023-02-28T08:13:45;95178.22;;;8.17;73.88
6528;BME280;64597;42.664;23.256;2023-02-28T08:16:12;95174.41;;;8.19;73.89
6528;BME280;64597;42.664;23.256;2023-02-28T08:18:40;95186.91;;;8.24;74.32
6528;BME280;64597;42.664;23.256;2023-02-28T08:21:07;95172.38;;;8.28;73.97
6528;BME280;64597;42.664;23.256;2023-02-28T08:23:33;95191.56;;;8.35;73.98
6528;BME280;64597;42.664;23.256;2023-02-28T08:25:58;95183.09;;;8.26;73.62
6528;BME280;64597;42.664;23.256;2023-02-28T08:28:24;95179.44;;;8.34;74.33
6528;BME280;64597;42.664;23.256;2023-02-28T08:30:50;95190.34;;;8.38;74.29
6528;BME280;64597;42.664;23.256;2023-02-28T08:33:15;95163.50;;;8.29;74.37
6528;BME280;64597;42.664;23.256;2023-02-28T08:35:41;95192.38;;;8.42;73.88
6528;BME280;64597;42.664;23.256;2023-02-28T08:38:09;95191.78;;;8.40;74.38
6528;BME280;64597;42.664;23.256;2023-02-28T08:40:34;95189.75;;;8.42;74.41
6528;BME280;64597;42.664;23.256;2023-02-28T08:43:00;95193.38;;;10.30;91.20
6528;BME280;64597;42.664;23.256;2023-02-28T08:45:25;95184.06;;;12.30;87.19
6528;BME280;64597;42.664;23.256;2023-02-28T08:47:51;95160.94;;;13.23;72.28
6528;BME280;64597;42.664;23.256;2023-02-28T08:50:18;95160.22;;;12.76;75.52
6528;BME280;64597;42.664;23.256;2023-02-28T08:52:43;95156.78;;;11.95;71.27
6528;BME280;64597;42.664;23.256;2023-02-28T08:55:09;95176.09;;;11.54;69.74
6528;BME280;64597;42.664;23.256;2023-02-28T08:57:35;95180.09;;;11.27;68.28
6528;BME280;64597;42.664;23.256;2023-02-28T09:00:02;95186.88;;;11.05;66.87
6528;BME280;64597;42.664;23.256;2023-02-28T09:02:30;95180.53;;;10.76;66.81
6528;BME280;64597;42.664;23.256;2023-02-28T09:04:55;95189.44;;;10.57;66.99
6528;BME280;64597;42.664;23.256;2023-02-28T09:07:21;95180.88;;;10.43;66.49
6528;BME280;64597;42.664;23.256;2023-02-28T09:09:46;95157.03;;;10.14;66.77
6528;BME280;64597;42.664;23.256;2023-02-28T09:12:25;95185.78;;;10.15;67.80
6528;BME280;64597;42.664;23.256;2023-02-28T09:14:51;95178.13;;;10.07;68.49
6528;BME280;64597;42.664;23.256;2023-02-28T09:17:16;95169.31;;;9.95;68.35
6528;BME280;64597;42.664;23.256;2023-02-28T09:19:42;95176.31;;;9.83;68.45
6528;BME280;64597;42.664;23.256;2023-02-28T09:22:08;95173.88;;;9.81;68.81
6528;BME280;64597;42.664;23.256;2023-02-28T09:24:35;95177.16;;;9.77;69.56
6528;BME280;64597;42.664;23.256;2023-02-28T09:27:01;95176.94;;;9.78;69.77
6528;BME280;64597;42.664;23.256;2023-02-28T09:29:26;95175.13;;;9.79;70.26
6528;BME280;64597;42.664;23.256;2023-02-28T09:31:51;95169.09;;;9.72;70.50
6528;BME280;64597;42.664;23.256;2023-02-28T09:34:17;95177.59;;;9.74;70.32
6528;BME280;64597;42.664;23.256;2023-02-28T09:36:42;95173.50;;;9.78;70.00
6528;BME280;64597;42.664;23.256;2023-02-28T09:39:08;95174.47;;;9.83;70.39
6528;BME280;64597;42.664;23.256;2023-02-28T09:41:40;95175.47;;;9.89;70.38
6528;BME280;64597;42.664;23.256;2023-02-28T09:44:17;95170.97;;;9.89;71.28
6528;BME280;64597;42.664;23.256;2023-02-28T09:46:49;95166.47;;;9.96;70.70
6528;BME280;64597;42.664;23.256;2023-02-28T09:49:21;95164.66;;;9.97;70.34
6528;BME280;64597;42.664;23.256;2023-02-28T09:51:56;95171.69;;;10.03;70.52
6528;BME280;64597;42.664;23.256;2023-02-28T09:54:24;95164.19;;;10.00;71.66
6528;BME280;64597;42.664;23.256;2023-02-28T09:57:06;95160.56;;;10.01;71.07
6528;BME280;64597;42.664;23.256;2023-02-28T10:05:16;95165.53;;;10.16;70.72
6528;BME280;64597;42.664;23.256;2023-02-28T10:07:51;95162.69;;;10.17;70.64
6528;BME280;64597;42.664;23.256;2023-02-28T10:10:41;95149.06;;;10.20;70.25
6528;BME280;64597;42.664;23.256;2023-02-28T10:15:38;95149.22;;;10.25;70.20
6528;BME280;64597;42.664;23.256;2023-02-28T10:18:08;95142.47;;;10.11;70.25
6528;BME280;64597;42.664;23.256;2023-02-28T10:20:39;95114.91;;;10.07;69.95
6528;BME280;64597;42.664;23.256;2023-02-28T10:23:23;95142.53;;;10.23;69.99
6528;BME280;64597;42.664;23.256;2023-02-28T10:25:59;95130.94;;;10.30;70.90
6528;BME280;64597;42.664;23.256;2023-02-28T10:28:26;95125.22;;;10.33;70.59
6528;BME280;64597;42.664;23.256;2023-02-28T10:30:53;95124.84;;;10.48;70.94
6528;BME280;64597;42.664;23.256;2023-02-28T10:33:24;95125.81;;;10.53;70.37
6528;BME280;64597;42.664;23.256;2023-02-28T10:35:51;95120.03;;;10.63;70.42
6528;BME280;64597;42.664;23.256;2023-02-28T10:38:22;95118.34;;;10.68;70.38
6528;BME280;64597;42.664;23.256;2023-02-28T10:40:48;95111.94;;;10.76;70.45
6528;BME280;64597;42.664;23.256;2023-02-28T10:46:02;95101.19;;;11.07;69.53
6528;BME280;64597;42.664;23.256;2023-02-28T10:51:13;95076.47;;;11.20;68.58
6528;BME280;64597;42.664;23.256;2023-02-28T10:53:52;95079.84;;;11.38;68.80
6528;BME280;64597;42.664;23.256;2023-02-28T10:56:26;95073.44;;;11.46;68.44
6528;BME280;64597;42.664;23.256;2023-02-28T11:01:42;95070.22;;;11.44;66.80
6528;BME280;64597;42.664;23.256;2023-02-28T11:04:31;95061.47;;;11.55;66.92
6528;BME280;64597;42.664;23.256;2023-02-28T11:07:01;95059.72;;;11.67;66.61
6528;BME280;64597;42.664;23.256;2023-02-28T11:09:32;95059.81;;;11.72;65.56
6528;BME280;64597;42.664;23.256;2023-02-28T11:11:59;95053.84;;;11.77;65.28
6528;BME280;64597;42.664;23.256;2023-02-28T11:14:27;95044.16;;;13.36;81.84
6528;BME280;64597;42.664;23.256;2023-02-28T11:16:55;95034.34;;;15.11;71.88
6528;BME280;64597;42.664;23.256;2023-02-28T11:19:29;95030.28;;;16.35;64.73
6528;BME280;64597;42.664;23.256;2023-02-28T11:22:01;95020.19;;;16.32;52.67
6528;BME280;64597;42.664;23.256;2023-02-28T11:24:33;95042.03;;;15.08;54.12
6528;BME280;64597;42.664;23.256;2023-02-28T11:27:00;95035.16;;;14.63;55.89
6528;BME280;64597;42.664;23.256;2023-02-28T11:29:29;95028.16;;;14.36;56.50
6528;BME280;64597;42.664;23.256;2023-02-28T11:34:28;95024.81;;;13.69;57.89
6528;BME280;64597;42.664;23.256;2023-02-28T11:36:58;95028.91;;;13.27;58.85
6528;BME280;64597;42.664;23.256;2023-02-28T11:39:25;95031.63;;;13.32;59.34
6528;BME280;64597;42.664;23.256;2023-02-28T11:50:51;95028.94;;;12.87;60.31
6528;BME280;64597;42.664;23.256;2023-02-28T11:56:11;95014.19;;;12.91;60.44
6528;BME280;64597;42.664;23.256;2023-02-28T12:04:25;95022.63;;;13.16;60.65
6528;BME280;64597;42.664;23.256;2023-02-28T12:07:06;95016.78;;;13.31;60.35
6528;BME280;64597;42.664;23.256;2023-02-28T12:10:04;95016.94;;;13.24;59.23
6528;BME280;64597;42.664;23.256;2023-02-28T12:12:42;95010.50;;;13.20;60.15
6528;BME280;64597;42.664;23.256;2023-02-28T12:15:45;95014.44;;;13.17;60.04
6528;BME280;64597;42.664;23.256;2023-02-28T12:20:54;95013.06;;;13.15;60.21
6528;BME280;64597;42.664;23.256;2023-02-28T12:26:16;95011.53;;;13.19;59.81
6528;BME280;64597;42.664;23.256;2023-02-28T12:28:56;95023.34;;;13.28;59.43
6528;BME280;64597;42.664;23.256;2023-02-28T12:31:28;95015.69;;;13.15;59.96
6528;BME280;64597;42.664;23.256;2023-02-28T12:34:00;95021.94;;;13.09;59.80
6528;BME280;64597;42.664;23.256;2023-02-28T12:36:28;95015.00;;;12.91;59.58
6528;BME280;64597;42.664;23.256;2023-02-28T12:38:58;95017.91;;;12.90;59.23
6528;BME280;64597;42.664;23.256;2023-02-28T12:41:46;95014.38;;;12.73;60.14
6528;BME280;64597;42.664;23.256;2023-02-28T12:44:17;95014.94;;;12.75;60.03
6528;BME280;64597;42.664;23.256;2023-02-28T12:46:47;95006.06;;;12.81;60.32
6528;BME280;64597;42.664;23.256;2023-02-28T12:51:48;95003.13;;;12.66;60.34
6528;BME280;64597;42.664;23.256;2023-02-28T12:54:36;95007.47;;;12.43;60.64
6528;BME280;64597;42.664;23.256;2023-02-28T12:59:57;94996.00;;;12.38;61.58
6528;BME280;64597;42.664;23.256;2023-02-28T13:10:44;94993.03;;;12.34;61.18
6528;BME280;64597;42.664;23.256;2023-02-28T13:13:15;94994.16;;;12.38;61.12
6528;BME280;64597;42.664;23.256;2023-02-28T13:18:34;95008.09;;;12.11;61.36
6528;BME280;64597;42.664;23.256;2023-02-28T13:21:03;95003.88;;;11.98;61.79
6528;BME280;64597;42.664;23.256;2023-02-28T13:26:21;94978.03;;;11.89;62.06
6528;BME280;64597;42.664;23.256;2023-02-28T13:31:20;94975.97;;;11.68;62.20
6528;BME280;64597;42.664;23.256;2023-02-28T13:38:41;94993.91;;;11.77;61.62
6528;BME280;64597;42.664;23.256;2023-02-28T13:41:43;94983.22;;;11.72;62.39
6528;BME280;64597;42.664;23.256;2023-02-28T13:44:15;94983.22;;;11.72;62.06
6528;BME280;64597;42.664;23.256;2023-02-28T13:51:47;94951.88;;;11.52;61.49
6528;BME280;64597;42.664;23.256;2023-02-28T13:57:22;94970.56;;;11.51;61.16
6528;BME280;64597;42.664;23.256;2023-02-28T14:06:22;94965.97;;;11.58;61.54
6528;BME280;64597;42.664;23.256;2023-02-28T14:08:57;94976.19;;;11.43;61.39
6528;BME280;64597;42.664;23.256;2023-02-28T14:13:58;94950.94;;;11.24;62.38
6528;BME280;64597;42.664;23.256;2023-02-28T14:16:37;94961.38;;;11.42;62.29
6528;BME280;64597;42.664;23.256;2023-02-28T14:19:12;94968.16;;;11.38;62.18
6528;BME280;64597;42.664;23.256;2023-02-28T14:21:47;94971.03;;;11.36;62.63
6528;BME280;64597;42.664;23.256;2023-02-28T14:33:00;94959.56;;;11.54;61.97
6528;BME280;64597;42.664;23.256;2023-02-28T14:38:56;94963.91;;;11.37;61.75
6528;BME280;64597;42.664;23.256;2023-02-28T14:41:30;94956.41;;;11.22;62.42
6528;BME280;64597;42.664;23.256;2023-02-28T14:43:58;94961.03;;;11.27;61.51
6528;BME280;64597;42.664;23.256;2023-02-28T14:46:36;94954.72;;;11.28;62.03
6528;BME280;64597;42.664;23.256;2023-02-28T14:49:04;94950.03;;;11.30;62.16
6528;BME280;64597;42.664;23.256;2023-02-28T14:51:32;94940.97;;;11.26;62.04
6528;BME280;64597;42.664;23.256;2023-02-28T14:54:01;94945.44;;;11.48;61.69
6528;BME280;64597;42.664;23.256;2023-02-28T14:56:37;94924.66;;;11.17;61.98
6528;BME280;64597;42.664;23.256;2023-02-28T14:59:04;94939.69;;;11.40;62.46
6528;BME280;64597;42.664;23.256;2023-02-28T15:01:30;94940.72;;;11.39;62.44
6528;BME280;64597;42.664;23.256;2023-02-28T15:04:04;94945.91;;;11.34;62.18
6528;BME280;64597;42.664;23.256;2023-02-28T15:06:31;94937.41;;;11.32;62.29
6528;BME280;64597;42.664;23.256;2023-02-28T15:09:17;94936.47;;;11.26;62.66
6528;BME280;64597;42.664;23.256;2023-02-28T15:11:47;94946.22;;;11.37;62.63
6528;BME280;64597;42.664;23.256;2023-02-28T15:14:19;94940.97;;;11.26;62.86
6528;BME280;64597;42.664;23.256;2023-02-28T15:16:48;94946.69;;;11.23;62.88
6528;BME280;64597;42.664;23.256;2023-02-28T15:19:24;94955.06;;;11.20;63.16
6528;BME280;64597;42.664;23.256;2023-02-28T15:22:04;94950.22;;;11.17;63.69
6528;BME280;64597;42.664;23.256;2023-02-28T15:24:35;94956.66;;;11.09;63.63
6528;BME280;64597;42.664;23.256;2023-02-28T15:27:05;94953.53;;;11.01;64.01
6528;BME280;64597;42.664;23.256;2023-02-28T15:29:42;94963.03;;;10.90;64.32
6528;BME280;64597;42.664;23.256;2023-02-28T15:32:29;94958.91;;;10.83;65.31
6528;BME280;64597;42.664;23.256;2023-02-28T15:34:56;94963.50;;;10.87;64.72
6528;BME280;64597;42.664;23.256;2023-02-28T15:37:28;94943.75;;;10.78;65.05